createdAt,value
2019-05-09T00:01:23.722Z,87.95
2019-05-09T00:03:53.813Z,87.97
2019-05-09T00:06:23.967Z,88.01
2019-05-09T00:08:53.267Z,87.98
2019-05-09T00:11:21.814Z,88.03
2019-05-09T00:13:50.317Z,87.90
2019-05-09T00:16:18.837Z,87.85
2019-05-09T00:18:47.249Z,87.67
2019-05-09T00:21:17.354Z,87.52
2019-05-09T00:23:45.774Z,87.63
2019-05-09T00:26:14.197Z,87.70
2019-05-09T00:28:44.603Z,87.79
2019-05-09T00:31:23.956Z,87.72
2019-05-09T00:33:54.204Z,87.72
2019-05-09T00:36:23.210Z,87.70
2019-05-09T00:38:53.704Z,87.65
2019-05-09T00:41:23.937Z,87.60
2019-05-09T00:43:54.408Z,87.53
2019-05-09T00:46:24.457Z,87.46
2019-05-09T00:49:00.552Z,87.46
2019-05-09T00:51:29.115Z,87.49
2019-05-09T00:53:57.544Z,87.45
2019-05-09T00:56:26.022Z,87.45
2019-05-09T00:58:54.482Z,87.51
2019-05-09T01:01:24.037Z,87.54
2019-05-09T01:03:53.532Z,87.51
2019-05-09T01:06:23.936Z,87.55
2019-05-09T01:08:53.906Z,87.58
2019-05-09T01:11:24.194Z,87.57
2019-05-09T01:13:54.321Z,87.63
2019-05-09T01:16:24.104Z,87.67
2019-05-09T01:18:59.188Z,87.65
2019-05-09T01:21:27.610Z,87.66
2019-05-09T01:23:56.033Z,87.57
2019-05-09T01:26:24.500Z,87.57
2019-05-09T01:28:53.953Z,87.59
2019-05-09T01:31:24.081Z,87.57
2019-05-09T01:33:54.607Z,87.59
2019-05-09T01:36:23.562Z,87.61
2019-05-09T01:38:53.995Z,87.45
2019-05-09T01:41:29.792Z,87.48
2019-05-09T01:43:53.628Z,87.45
2019-05-09T01:46:23.606Z,87.39
2019-05-09T01:48:53.980Z,87.48
2019-05-09T01:51:23.350Z,87.49
2019-05-09T01:53:53.636Z,87.44
2019-05-09T01:56:23.479Z,87.47
2019-05-09T02:02:33.852Z,87.53
2019-05-09T02:05:04.157Z,87.52
2019-05-09T02:07:33.258Z,87.52
2019-05-09T02:10:03.401Z,87.44
2019-05-09T02:12:33.895Z,87.48
2019-05-09T02:15:13.136Z,87.50
2019-05-09T02:18:00.703Z,87.53
2019-05-09T02:20:24.201Z,87.51
2019-05-09T02:22:54.303Z,87.64
2019-05-09T02:25:24.245Z,87.65
2019-05-09T02:27:55.115Z,87.76
2019-05-09T02:30:25.365Z,87.85
2019-05-09T02:32:54.749Z,87.92
2019-05-09T02:35:23.630Z,88.10
2019-05-09T02:37:52.053Z,88.12
2019-05-09T02:40:20.746Z,88.31
2019-05-09T02:42:49.363Z,88.37
2019-05-09T02:45:19.443Z,88.34
2019-05-09T02:47:49.017Z,88.41
2019-05-09T02:50:19.515Z,88.46
2019-05-09T02:52:48.811Z,88.55
2019-05-09T02:55:18.418Z,88.55
2019-05-09T02:57:49.129Z,88.65
2019-05-09T03:00:39.494Z,88.60
2019-05-09T03:03:10.631Z,88.67
2019-05-09T03:05:39.082Z,88.68
2019-05-09T03:08:09.016Z,88.90
2019-05-09T03:10:38.174Z,88.93
2019-05-09T03:13:09.116Z,88.90
2019-05-09T03:15:39.432Z,89.07
2019-05-09T03:18:08.964Z,89.06
2019-05-09T03:20:39.511Z,89.13
2019-05-09T03:23:09.172Z,89.27
2019-05-09T03:25:40.975Z,89.28
2019-05-09T03:28:28.581Z,89.29
2019-05-09T03:30:59.339Z,89.32
2019-05-09T03:33:29.631Z,89.29
2019-05-09T03:35:58.299Z,89.32
2019-05-09T03:38:28.418Z,89.41
2019-05-09T03:40:58.051Z,89.46
2019-05-09T03:43:27.552Z,89.53
2019-05-09T03:46:14.070Z,89.53
2019-05-09T03:48:47.708Z,89.61
2019-05-09T03:51:18.228Z,89.62
2019-05-09T03:53:48.246Z,89.63
2019-05-09T03:56:27.394Z,89.71
2019-05-09T03:58:57.858Z,89.68
2019-05-09T04:01:28.081Z,89.71
2019-05-09T04:03:58.433Z,89.67
2019-05-09T04:06:28.227Z,89.58
2019-05-09T04:08:58.522Z,89.61
2019-05-09T04:11:27.679Z,89.66
2019-05-09T04:13:58.625Z,89.62
2019-05-09T04:16:27.672Z,89.58
2019-05-09T04:18:58.154Z,89.53
2019-05-09T04:21:27.963Z,89.50
2019-05-09T04:23:58.450Z,89.50
2019-05-09T04:26:32.187Z,89.37
2019-05-09T04:29:00.616Z,89.29
2019-05-09T04:31:29.110Z,88.98
2019-05-09T04:33:57.839Z,88.94
2019-05-09T04:36:41.211Z,88.84
2019-05-09T04:39:21.516Z,88.79
2019-05-09T04:41:42.774Z,88.73
2019-05-09T04:44:19.247Z,88.36
2019-05-09T04:46:48.061Z,88.24
2019-05-09T04:49:18.535Z,88.15
2019-05-09T04:51:47.925Z,88.25
2019-05-09T04:54:17.760Z,88.09
2019-05-09T04:56:47.517Z,87.92
2019-05-09T04:59:17.913Z,87.95
2019-05-09T05:01:48.632Z,87.60
2019-05-09T05:04:18.123Z,87.41
2019-05-09T05:06:47.775Z,87.55
2019-05-09T05:09:20.504Z,87.51
2019-05-09T05:11:49.049Z,87.44
2019-05-09T05:14:22.909Z,87.40
2019-05-09T05:16:58.171Z,87.32
2019-05-09T05:19:25.671Z,87.26
2019-05-09T05:21:58.277Z,87.24
2019-05-09T05:24:31.935Z,87.25
2019-05-09T05:27:00.675Z,87.09
2019-05-09T05:29:29.110Z,87.23
2019-05-09T05:31:59.422Z,87.29
2019-05-09T05:34:31.933Z,87.19
2019-05-09T05:37:00.363Z,87.29
2019-05-09T05:39:29.010Z,87.18
2019-05-09T05:41:58.461Z,87.33
2019-05-09T05:44:28.350Z,87.40
2019-05-09T05:47:04.937Z,87.41
2019-05-09T05:49:33.362Z,87.38
2019-05-09T05:52:02.181Z,87.49
2019-05-09T05:54:30.767Z,87.65
2019-05-09T05:56:59.580Z,87.54
2019-05-09T05:59:28.750Z,87.54
2019-05-09T06:01:58.515Z,87.51
2019-05-09T06:04:27.629Z,87.37
2019-05-09T06:06:58.631Z,87.47
2019-05-09T06:09:28.012Z,87.41
2019-05-09T06:11:59.366Z,87.29
2019-05-09T06:14:28.598Z,86.97
2019-05-09T06:16:58.727Z,86.98
2019-05-09T06:19:28.666Z,86.86
2019-05-09T06:21:57.571Z,86.28
2019-05-09T06:24:29.699Z,86.12
2019-05-09T06:26:58.663Z,85.78
2019-05-09T06:29:28.582Z,85.84
2019-05-09T06:31:58.423Z,85.36
2019-05-09T06:34:27.899Z,85.37
2019-05-09T06:36:58.574Z,85.25
2019-05-09T06:39:28.519Z,85.07
2019-05-09T06:41:57.500Z,85.05
2019-05-09T06:44:37.499Z,85.09
2019-05-09T06:47:08.282Z,85.02
2019-05-09T06:49:38.700Z,85.13
2019-05-09T06:52:08.700Z,85.02
2019-05-09T06:54:41.334Z,84.87
2019-05-09T06:57:08.033Z,84.89
2019-05-09T06:59:38.179Z,84.49
2019-05-09T07:02:08.606Z,84.33
2019-05-09T07:04:41.498Z,83.75
2019-05-09T07:07:23.793Z,83.74
2019-05-09T07:09:58.594Z,83.30
2019-05-09T07:12:27.443Z,83.40
2019-05-09T07:14:57.951Z,83.58
2019-05-09T07:17:31.760Z,83.52
2019-05-09T07:19:58.861Z,83.55
2019-05-09T07:22:43.485Z,83.50
2019-05-09T07:25:18.469Z,83.27
2019-05-09T07:27:48.280Z,83.11
2019-05-09T07:30:34.475Z,83.00
2019-05-09T07:33:19.661Z,82.64
2019-05-09T07:35:48.681Z,82.28
2019-05-09T07:38:18.761Z,81.57
2019-05-09T07:40:47.870Z,81.45
2019-05-09T07:43:17.989Z,81.38
2019-05-09T07:46:08.876Z,81.18
2019-05-09T07:48:38.373Z,80.85
2019-05-09T07:51:07.864Z,80.75
2019-05-09T07:53:38.054Z,80.86
2019-05-09T07:56:07.891Z,79.76
2019-05-09T07:58:37.694Z,79.85
2019-05-09T08:01:08.641Z,80.13
2019-05-09T08:03:38.449Z,79.99
2019-05-09T08:06:08.810Z,79.81
2019-05-09T08:08:38.496Z,79.13
2019-05-09T08:11:08.800Z,78.97
2019-05-09T08:13:39.190Z,78.69
2019-05-09T08:16:12.408Z,78.23
2019-05-09T08:18:38.030Z,77.82
2019-05-09T08:21:08.410Z,77.72
2019-05-09T08:23:37.981Z,77.03
2019-05-09T08:26:08.794Z,77.01
2019-05-09T08:28:38.945Z,77.32
2019-05-09T08:31:08.225Z,77.08
2019-05-09T08:33:38.072Z,76.29
2019-05-09T08:36:08.707Z,76.12
2019-05-09T08:38:38.986Z,76.52
2019-05-09T08:41:09.335Z,76.37
2019-05-09T08:43:39.181Z,76.05
2019-05-09T08:46:08.086Z,75.77
2019-05-09T08:48:37.839Z,76.17
2019-05-09T08:51:09.017Z,76.04
2019-05-09T08:53:38.227Z,75.63
2019-05-09T08:56:08.964Z,74.85
2019-05-09T08:58:38.175Z,74.91
2019-05-09T09:01:09.728Z,74.53
2019-05-09T09:03:37.833Z,74.10
2019-05-09T09:06:08.345Z,73.86
2019-05-09T09:08:38.014Z,73.80
2019-05-09T09:11:08.641Z,73.41
2019-05-09T09:13:37.927Z,72.08
2019-05-09T09:16:18.008Z,71.38
2019-05-09T09:18:38.777Z,70.54
2019-05-09T09:21:08.129Z,69.78
2019-05-09T09:23:43.928Z,68.72
2019-05-09T09:26:08.125Z,69.00
2019-05-09T09:28:37.983Z,69.31
2019-05-09T09:31:08.200Z,68.37
2019-05-09T09:33:37.785Z,67.84
2019-05-09T09:36:08.719Z,68.18
2019-05-09T09:38:37.572Z,67.91
2019-05-09T09:41:11.402Z,67.45
2019-05-09T09:43:39.861Z,67.27
2019-05-09T09:46:14.333Z,66.84
2019-05-09T09:48:39.051Z,66.53
2019-05-09T09:51:08.144Z,65.98
2019-05-09T09:53:38.447Z,65.99
2019-05-09T09:56:08.642Z,65.49
2019-05-09T09:58:38.004Z,66.19
2019-05-09T10:01:23.704Z,65.91
2019-05-09T10:03:53.764Z,66.70
2019-05-09T10:06:22.228Z,67.00
2019-05-09T10:08:50.690Z,67.27
2019-05-09T10:11:19.127Z,67.19
2019-05-09T10:13:48.432Z,66.87
2019-05-09T10:16:34.848Z,66.58
2019-05-09T10:19:10.882Z,66.46
2019-05-09T10:21:40.994Z,66.71
2019-05-09T10:24:09.431Z,67.36
2019-05-09T10:26:39.117Z,68.03
2019-05-09T10:29:07.929Z,67.75
2019-05-09T10:31:39.033Z,67.54
2019-05-09T10:34:06.903Z,66.29
2019-05-09T10:36:35.462Z,66.13
2019-05-09T10:39:08.167Z,65.93
2019-05-09T10:41:37.624Z,66.00
2019-05-09T10:44:08.486Z,65.65
2019-05-09T10:46:56.825Z,64.81
2019-05-09T10:49:18.588Z,64.57
2019-05-09T10:51:48.545Z,64.03
2019-05-09T10:54:18.515Z,63.65
2019-05-09T10:56:48.723Z,61.56
2019-05-09T10:59:18.269Z,61.36
2019-05-09T11:01:49.436Z,61.33
2019-05-09T11:04:18.055Z,61.28
2019-05-09T11:06:46.498Z,59.93
2019-05-09T11:09:15.125Z,60.11
2019-05-09T11:11:43.961Z,59.53
2019-05-09T11:14:27.854Z,59.41
2019-05-09T11:16:46.506Z,59.36
2019-05-09T11:19:13.069Z,59.49
2019-05-09T11:21:41.507Z,59.52
2019-05-09T11:24:09.973Z,58.83
2019-05-09T11:26:39.930Z,58.93
2019-05-09T11:29:08.726Z,58.06
2019-05-09T11:31:38.482Z,57.98
2019-05-09T11:34:08.836Z,57.58
2019-05-09T11:36:38.202Z,56.62
2019-05-09T11:39:10.969Z,56.22
2019-05-09T11:41:39.716Z,55.63
2019-05-09T11:44:08.656Z,55.58
2019-05-09T11:46:38.270Z,55.97
2019-05-09T11:49:08.380Z,55.07
2019-05-09T11:51:37.050Z,54.41
2019-05-09T11:54:05.468Z,54.42
2019-05-09T11:56:33.923Z,54.48
2019-05-09T11:59:02.360Z,53.53
2019-05-09T12:01:32.422Z,52.35
2019-05-09T12:04:01.515Z,51.73
2019-05-09T12:06:29.935Z,50.79
2019-05-09T12:09:01.828Z,50.88
2019-05-09T12:11:30.324Z,50.71
2019-05-09T12:13:59.095Z,49.24
2019-05-09T12:16:28.088Z,48.21
2019-05-09T12:18:58.437Z,47.52
2019-05-09T12:21:28.180Z,47.31
2019-05-09T12:23:58.083Z,47.11
2019-05-09T12:26:29.097Z,46.39
2019-05-09T12:28:57.983Z,44.58
2019-05-09T12:31:28.761Z,42.53
2019-05-09T12:33:59.278Z,43.81
2019-05-09T12:36:28.590Z,43.08
2019-05-09T12:38:59.186Z,42.45
2019-05-09T12:41:31.371Z,40.75
2019-05-09T12:43:57.705Z,41.48
2019-05-09T12:46:28.180Z,42.14
2019-05-09T12:48:59.194Z,42.27
2019-05-09T12:51:28.262Z,41.18
2019-05-09T12:53:57.944Z,40.70
2019-05-09T12:56:28.421Z,40.67
2019-05-09T12:58:57.843Z,41.34
2019-05-09T13:01:29.547Z,41.84
2019-05-09T13:03:58.478Z,41.97
2019-05-09T13:06:29.273Z,42.22
2019-05-09T13:08:58.659Z,42.37
2019-05-09T13:11:28.223Z,42.52
2019-05-09T13:13:56.887Z,41.70
2019-05-09T13:16:42.792Z,40.60
2019-05-09T13:19:03.748Z,40.58
2019-05-09T13:21:33.053Z,40.10
2019-05-09T13:24:02.230Z,41.22
2019-05-09T13:26:30.953Z,41.91
2019-05-09T13:28:59.704Z,42.22
2019-05-09T13:31:29.572Z,42.20
2019-05-09T13:33:58.554Z,42.60
2019-05-09T13:36:28.470Z,42.64
2019-05-09T13:39:04.176Z,42.83
2019-05-09T13:41:27.793Z,43.08
2019-05-09T13:43:59.335Z,43.59
2019-05-09T13:46:28.299Z,44.10
2019-05-09T13:49:08.174Z,44.15
2019-05-09T13:51:26.711Z,44.20
2019-05-09T13:53:55.362Z,42.87
2019-05-09T13:56:24.255Z,41.37
2019-05-09T13:58:52.807Z,38.65
2019-05-09T14:01:21.363Z,38.60
2019-05-09T14:03:49.859Z,38.19
2019-05-09T14:06:18.257Z,36.93
2019-05-09T14:08:49.034Z,35.98
2019-05-09T14:11:19.225Z,35.22
2019-05-09T14:13:48.706Z,34.98
2019-05-09T14:16:22.044Z,34.36
2019-05-09T14:18:48.617Z,35.87
2019-05-09T14:21:21.517Z,36.65
2019-05-09T14:24:01.171Z,37.55
2019-05-09T14:26:18.140Z,38.47
2019-05-09T14:28:48.895Z,38.92
2019-05-09T14:31:18.572Z,39.38
2019-05-09T14:33:47.767Z,39.75
2019-05-09T14:36:16.358Z,39.77
2019-05-09T14:38:44.898Z,39.67
2019-05-09T14:41:13.361Z,40.10
2019-05-09T14:43:41.873Z,40.24
2019-05-09T14:46:10.466Z,40.77
2019-05-09T17:48:18.415Z,41.06
2019-05-09T17:50:47.186Z,41.06
2019-05-09T17:53:17.997Z,51.79
2019-05-09T17:55:47.762Z,53.03
2019-05-09T17:58:27.106Z,53.91
2019-05-09T18:00:48.367Z,54.62
2019-05-09T18:03:18.227Z,55.38
2019-05-09T18:05:48.645Z,56.42
2019-05-09T18:08:18.755Z,56.98
2019-05-09T18:10:48.500Z,57.71
2019-05-09T18:13:23.651Z,58.20
2019-05-09T18:15:48.392Z,58.70
2019-05-09T18:18:18.472Z,59.11
2019-05-09T18:20:47.151Z,59.29
2019-05-09T18:23:17.607Z,59.60
2019-05-09T18:25:45.974Z,59.70
2019-05-09T18:28:17.296Z,59.99
2019-05-09T18:30:47.662Z,60.16
2019-05-09T18:33:22.930Z,60.22
2019-05-09T18:35:51.495Z,60.35
2019-05-09T18:38:27.911Z,60.58
2019-05-09T18:40:57.963Z,60.92
2019-05-09T18:43:27.429Z,61.19
2019-05-09T18:45:57.778Z,61.63
2019-05-09T18:48:27.818Z,62.09
2019-05-09T18:50:56.659Z,62.56
2019-05-09T18:53:25.254Z,62.98
2019-05-09T18:55:53.767Z,63.26
2019-05-09T18:58:22.207Z,63.61
2019-05-09T19:00:51.178Z,63.86
2019-05-09T19:03:19.689Z,64.19
2019-05-09T19:05:48.108Z,64.54
2019-05-09T19:08:16.542Z,64.90
2019-05-09T19:10:45.270Z,65.12
2019-05-09T19:13:13.732Z,65.31
2019-05-09T19:15:43.816Z,65.54
2019-05-09T19:18:13.976Z,65.91
2019-05-09T19:20:50.218Z,66.10
2019-05-09T19:23:18.929Z,66.40
2019-05-09T19:25:47.368Z,66.88
2019-05-09T19:28:15.782Z,67.02
2019-05-09T19:30:44.275Z,67.30
2019-05-09T19:33:12.665Z,67.84
2019-05-09T19:35:41.542Z,67.87
2019-05-09T19:38:09.988Z,68.16
2019-05-09T19:40:38.566Z,68.41
2019-05-09T19:43:06.994Z,68.48
2019-05-09T19:45:35.668Z,68.69
2019-05-09T19:48:04.094Z,68.89
2019-05-09T19:50:32.796Z,69.21
2019-05-09T19:53:01.533Z,69.52
2019-05-09T19:55:29.957Z,69.88
2019-05-09T19:57:58.386Z,70.07
2019-05-09T20:00:27.181Z,70.21
2019-05-09T20:02:55.608Z,70.25
2019-05-09T20:05:24.127Z,70.35
2019-05-09T20:07:52.604Z,70.52
2019-05-09T20:10:22.709Z,70.76
2019-05-09T20:13:09.064Z,70.98
2019-05-09T20:15:37.474Z,71.26
2019-05-09T20:18:05.911Z,71.65
2019-05-09T20:20:34.376Z,71.92
2019-05-09T20:23:02.782Z,72.24
2019-05-09T20:25:31.198Z,72.46
2019-05-09T20:28:00.558Z,72.72
2019-05-09T20:30:28.964Z,72.94
2019-05-09T20:32:57.376Z,73.09
2019-05-09T20:35:26.023Z,73.20
2019-05-09T20:37:54.628Z,73.43
2019-05-09T20:40:23.198Z,73.55
2019-05-09T20:42:51.849Z,73.62
2019-05-09T20:45:20.457Z,73.72
2019-05-09T20:47:49.202Z,73.75
2019-05-09T20:50:17.908Z,73.67
2019-05-09T20:52:46.508Z,73.53
2019-05-09T20:55:15.545Z,73.37
2019-05-09T20:57:44.374Z,72.99
2019-05-09T21:00:13.331Z,72.79
2019-05-09T21:02:42.296Z,72.67
2019-05-09T21:05:11.153Z,72.40
2019-05-09T21:07:39.760Z,72.08
2019-05-09T21:10:08.747Z,71.58
2019-05-09T21:12:37.359Z,71.27
2019-05-09T21:15:08.444Z,70.95
2019-05-09T21:17:37.331Z,70.59
2019-05-09T21:20:09.310Z,70.29
2019-05-09T21:22:37.161Z,70.03
2019-05-09T21:25:07.406Z,69.85
2019-05-09T21:27:36.029Z,69.83
2019-05-09T21:30:10.509Z,69.90
2019-05-09T21:32:39.120Z,69.84
2019-05-09T21:35:08.106Z,69.76
2019-05-09T21:37:36.559Z,69.77
2019-05-09T21:40:08.736Z,69.72
2019-05-09T21:42:37.754Z,69.77
2019-05-09T21:45:09.548Z,69.75
2019-05-09T21:47:37.960Z,69.84
2019-05-09T21:50:07.247Z,70.00
2019-05-09T21:52:35.669Z,70.10
2019-05-09T21:55:05.084Z,70.38
2019-05-09T21:57:33.541Z,70.45
2019-05-09T22:00:02.183Z,70.47
2019-05-09T22:02:30.746Z,70.51
2019-05-09T22:04:59.302Z,70.59
2019-05-09T22:07:27.793Z,70.75
2019-05-09T22:09:56.211Z,70.97
2019-05-09T22:12:24.909Z,71.10
2019-05-09T22:14:53.350Z,71.24
2019-05-09T22:17:38.461Z,71.46
2019-05-09T22:20:12.077Z,71.70
2019-05-09T22:22:40.813Z,71.87
2019-05-09T22:25:09.970Z,72.04
2019-05-09T22:27:38.637Z,72.25
2019-05-09T22:30:10.578Z,72.26
2019-05-09T22:32:38.309Z,72.49
2019-05-09T22:35:07.634Z,72.58
2019-05-09T22:37:36.061Z,72.56
2019-05-09T22:40:07.695Z,72.85
2019-05-09T22:42:36.177Z,73.07
2019-05-09T22:45:09.518Z,73.19
2019-05-09T22:47:38.180Z,73.42
2019-05-09T22:50:07.536Z,73.75
2019-05-09T22:52:35.961Z,74.06
2019-05-09T22:55:05.466Z,74.24
2019-05-09T22:57:33.889Z,74.45
2019-05-09T23:00:02.746Z,74.56
2019-05-09T23:02:31.536Z,74.55
2019-05-09T23:05:00.015Z,74.82
2019-05-09T23:07:28.494Z,74.97
2019-05-09T23:09:57.194Z,75.24
2019-05-09T23:12:25.624Z,75.15
2019-05-09T23:14:54.056Z,75.05
2019-05-09T23:17:22.517Z,75.01
2019-05-09T23:19:50.973Z,74.95
2019-05-09T23:22:20.068Z,74.90
2019-05-09T23:24:48.885Z,74.64
2019-05-09T23:27:19.196Z,74.32
2019-05-09T23:29:47.686Z,73.96
2019-05-09T23:32:20.744Z,73.50
2019-05-09T23:34:49.239Z,73.13
2019-05-09T23:37:17.683Z,72.83
2019-05-09T23:39:53.364Z,72.66
2019-05-09T23:42:21.756Z,72.46
2019-05-09T23:44:50.175Z,72.35
2019-05-09T23:47:18.640Z,72.14
2019-05-09T23:49:47.088Z,72.29
2019-05-09T23:52:15.574Z,72.17
2019-05-09T23:55:02.066Z,71.95
2019-05-09T23:57:48.509Z,71.91
